Time;durP1;ratioP1;P1;durP2;ratioP2;P2;SDS_P1;SDS_P2;PMS_P1;PMS_P2;Temp;Humidity;BMP_temperature;BMP_pressure;BME280_temperature;BME280_humidity;BME280_pressure;Samples;Min_cycle;Max_cycle;Signal;HPM_P1;HPM_P2
2021/01/12 00:02:24;;;;;;;27.40;11.75;;;-2.00;77.00;;;;;;4941119;29;21058;-81
2021/01/12 00:04:51;;;;;;;14.48;6.55;;;-2.10;77.00;;;;;;4938489;29;20089;-81
2021/01/12 00:07:21;;;;;;;16.40;8.02;;;-2.10;77.10;;;;;;4938305;29;20027;-81
2021/01/12 00:09:48;;;;;;;20.25;8.07;;;-2.10;77.10;;;;;;4922240;29;20031;-82
2021/01/12 00:12:14;;;;;;;23.42;9.48;;;-2.20;77.10;;;;;;4955794;29;20555;-81
2021/01/12 00:14:39;;;;;;;22.95;9.73;;;-2.20;77.10;;;;;;4935253;29;20111;-81
2021/01/12 00:17:07;;;;;;;22.55;8.27;;;-2.20;77.30;;;;;;4932068;29;20122;-81
2021/01/12 00:19:35;;;;;;;23.42;9.60;;;-2.10;77.70;;;;;;4938570;29;20034;-83
2021/01/12 00:22:02;;;;;;;24.27;9.63;;;-2.10;78.00;;;;;;4938492;29;20031;-84
2021/01/12 00:24:28;;;;;;;25.27;10.18;;;-2.00;78.20;;;;;;4938075;29;20023;-84
2021/01/12 00:26:54;;;;;;;22.15;9.30;;;-1.90;78.10;;;;;;4922401;29;20167;-84
2021/01/12 00:29:20;;;;;;;23.35;9.88;;;-1.90;77.70;;;;;;4922277;29;20027;-84
2021/01/12 00:31:47;;;;;;;25.98;10.38;;;-1.90;77.50;;;;;;4938002;29;20045;-84
2021/01/12 00:34:13;;;;;;;24.45;10.32;;;-1.90;77.20;;;;;;4938119;29;20506;-84
2021/01/12 00:36:53;;;;;;;26.17;10.30;;;-2.00;77.10;;;;;;4937889;29;20546;-82
2021/01/12 00:39:20;;;;;;;25.85;10.20;;;-2.00;77.40;;;;;;4937595;29;20038;-82
2021/01/12 00:41:55;;;;;;;22.20;8.52;;;-2.10;77.20;;;;;;4938074;29;20030;-82
2021/01/12 00:44:23;;;;;;;20.23;8.25;;;-2.10;77.30;;;;;;4937454;29;20150;-82
2021/01/12 00:46:48;;;;;;;21.17;9.15;;;-2.10;77.30;;;;;;4937798;29;20446;-80
2021/01/12 00:49:17;;;;;;;23.73;10.52;;;-2.10;77.40;;;;;;4937827;29;20143;-83
2021/01/12 00:51:43;;;;;;;15.32;6.05;;;-2.00;77.50;;;;;;4922479;29;20039;-83
2021/01/12 00:54:17;;;;;;;23.75;10.13;;;-2.10;77.40;;;;;;4931377;29;20024;-83
2021/01/12 00:56:44;;;;;;;19.90;8.25;;;-2.00;77.60;;;;;;4937551;29;20111;-80
2021/01/12 00:59:10;;;;;;;19.55;8.85;;;-2.00;77.60;;;;;;4955265;29;20031;-82
2021/01/12 01:01:37;;;;;;;21.83;8.80;;;-2.00;77.50;;;;;;4937645;29;20023;-84
2021/01/12 01:04:05;;;;;;;20.58;8.95;;;-2.00;77.50;;;;;;4937184;29;20027;-83
2021/01/12 01:06:31;;;;;;;22.17;8.60;;;-2.00;77.50;;;;;;4922108;29;20123;-84
2021/01/12 01:08:57;;;;;;;17.65;7.22;;;-1.90;77.60;;;;;;4922144;29;20034;-83
2021/01/12 01:11:24;;;;;;;25.05;9.38;;;-2.00;77.50;;;;;;4954161;28;20038;-84
2021/01/12 01:13:50;;;;;;;25.23;10.65;;;-2.00;77.50;;;;;;4937664;29;20027;-84
2021/01/12 01:16:16;;;;;;;24.17;9.90;;;-1.90;77.50;;;;;;4921499;29;20518;-84
2021/01/12 01:18:42;;;;;;;15.38;7.22;;;-1.90;77.50;;;;;;4937501;29;20027;-84
2021/01/12 01:21:14;;;;;;;22.25;9.52;;;-1.90;77.40;;;;;;4937347;29;20036;-83
2021/01/12 01:23:40;;;;;;;18.70;8.32;;;-1.90;77.50;;;;;;4937320;29;20136;-84
2021/01/12 01:26:06;;;;;;;22.08;9.68;;;-1.90;77.70;;;;;;4921205;29;20024;-82
2021/01/12 01:28:32;;;;;;;22.85;9.73;;;-1.90;77.70;;;;;;4921481;29;20106;-84
2021/01/12 01:30:58;;;;;;;27.25;11.50;;;-1.90;77.60;;;;;;4936957;29;20500;-84
2021/01/12 01:33:23;;;;;;;28.08;8.80;;;-1.90;77.40;;;;;;4919514;29;20028;-83
2021/01/12 01:35:50;;;;;;;17.08;7.45;;;-1.90;77.50;;;;;;4921248;29;20502;-84
2021/01/12 01:38:16;;;;;;;19.52;7.43;;;-1.90;77.50;;;;;;4937587;29;20160;-83
2021/01/12 01:40:42;;;;;;;20.77;8.20;;;-1.90;77.30;;;;;;4921226;29;20023;-79
2021/01/12 01:43:14;;;;;;;18.33;7.78;;;-1.90;77.60;;;;;;4937292;29;20074;-81
2021/01/12 01:45:40;;;;;;;17.05;7.07;;;-1.80;77.90;;;;;;4937057;29;20515;-82
2021/01/12 01:48:06;;;;;;;20.20;7.35;;;-1.80;78.10;;;;;;4921073;29;20039;-82
2021/01/12 01:50:34;;;;;;;24.27;9.52;;;-1.70;78.40;;;;;;4936793;29;20027;-81
2021/01/12 01:52:59;;;;;;;22.33;8.13;;;-1.60;78.30;;;;;;4954369;29;20039;-80
2021/01/12 01:55:25;;;;;;;25.23;9.02;;;-1.50;78.00;;;;;;4936733;29;20118;-83
2021/01/12 01:57:51;;;;;;;21.67;8.68;;;-1.50;78.00;;;;;;4920888;29;20039;-82
2021/01/12 02:00:21;;;;;;;20.55;7.82;;;-1.40;78.10;;;;;;4954152;29;20074;-83
2021/01/12 02:03:12;;;;;;;22.33;9.40;;;-1.40;78.00;;;;;;4951622;29;20031;-80
2021/01/12 02:05:48;;;;;;;20.35;8.23;;;-1.40;78.10;;;;;;4934818;29;20455;-82
2021/01/12 02:08:24;;;;;;;23.45;8.55;;;-1.30;78.40;;;;;;4936729;29;20130;-81
2021/01/12 02:10:59;;;;;;;22.42;8.55;;;-1.20;78.60;;;;;;4933927;29;20118;-81
2021/01/12 02:13:31;;;;;;;20.30;8.40;;;-1.10;78.60;;;;;;4954157;29;20023;-81
2021/01/12 02:16:00;;;;;;;18.92;7.35;;;-1.10;78.50;;;;;;4920795;29;20023;-81
2021/01/12 02:18:32;;;;;;;18.13;7.55;;;-1.00;78.60;;;;;;4936628;29;20424;-81
2021/01/12 02:21:02;;;;;;;21.13;9.02;;;-0.90;78.40;;;;;;4936772;29;20490;-81
2021/01/12 02:23:34;;;;;;;20.48;7.80;;;-0.90;78.50;;;;;;4939066;29;20033;-81
2021/01/12 02:26:01;;;;;;;13.70;5.22;;;-0.80;78.60;;;;;;4940125;29;20039;-81
2021/01/12 02:28:27;;;;;;;18.85;7.40;;;-0.70;78.70;;;;;;4940564;29;20110;-81
2021/01/12 02:30:53;;;;;;;17.30;6.25;;;-0.70;78.80;;;;;;4940146;29;20035;-80
2021/01/12 02:33:19;;;;;;;19.95;8.45;;;-0.60;78.90;;;;;;4940327;29;20071;-80
2021/01/12 02:35:47;;;;;;;21.90;8.23;;;-0.50;78.90;;;;;;4939948;29;20050;-83
2021/01/12 02:38:13;;;;;;;19.58;8.48;;;-0.40;78.80;;;;;;4953626;29;20027;-80
2021/01/12 02:40:39;;;;;;;13.55;5.97;;;-0.40;78.80;;;;;;4948259;28;20110;-81
2021/01/12 02:43:05;;;;;;;16.55;6.50;;;-0.40;78.60;;;;;;4958390;29;20118;-82
2021/01/12 02:45:32;;;;;;;15.98;6.38;;;-0.30;78.70;;;;;;4941980;29;20055;-83
2021/01/12 02:47:58;;;;;;;9.65;3.55;;;-0.30;79.40;;;;;;4945476;29;20042;-83
2021/01/12 02:50:24;;;;;;;15.40;6.63;;;-0.20;78.80;;;;;;4944191;29;20109;-83
2021/01/12 02:52:50;;;;;;;15.10;6.30;;;-0.20;78.70;;;;;;4939974;29;20463;-83
2021/01/12 02:55:19;;;;;;;15.00;6.53;;;-0.10;78.80;;;;;;4939848;29;20023;-81
2021/01/12 02:57:47;;;;;;;14.85;6.03;;;-0.10;78.80;;;;;;4923867;29;20027;-80
2021/01/12 03:00:15;;;;;;;18.58;8.07;;;0.00;78.70;;;;;;4947560;29;20472;-83
2021/01/12 03:02:41;;;;;;;17.20;7.40;;;0.00;78.60;;;;;;4939767;29;20436;-82
2021/01/12 03:05:08;;;;;;;15.68;7.60;;;0.00;78.60;;;;;;4939506;29;20157;-81
2021/01/12 03:07:35;;;;;;;20.42;7.75;;;0.00;78.60;;;;;;4923687;29;20035;-81
2021/01/12 03:10:03;;;;;;;22.40;8.40;;;0.10;78.40;;;;;;4939176;29;20027;-81
2021/01/12 03:12:28;;;;;;;22.17;8.38;;;0.10;78.50;;;;;;4939616;29;20472;-80
2021/01/12 03:14:54;;;;;;;19.90;8.55;;;0.10;78.40;;;;;;4939540;29;20038;-81
2021/01/12 03:17:20;;;;;;;17.63;8.07;;;0.10;78.40;;;;;;4939793;29;20039;-81
2021/01/12 03:19:46;;;;;;;14.52;6.35;;;0.10;78.60;;;;;;4939071;29;20032;-81
2021/01/12 03:22:12;;;;;;;17.92;7.85;;;0.10;78.40;;;;;;4939550;29;20032;-81
2021/01/12 03:24:38;;;;;;;20.42;7.80;;;0.10;78.40;;;;;;4923576;29;20027;-81
2021/01/12 03:27:06;;;;;;;17.15;6.65;;;0.20;78.70;;;;;;4922991;29;20023;-79
2021/01/12 03:29:33;;;;;;;19.13;7.38;;;0.20;78.80;;;;;;4939023;29;20027;-82
2021/01/12 03:31:59;;;;;;;17.60;8.45;;;0.20;78.70;;;;;;4922191;29;20032;-82
2021/01/12 03:34:24;;;;;;;13.57;6.15;;;0.30;78.80;;;;;;4938864;29;20479;-82
2021/01/12 03:36:50;;;;;;;22.33;9.25;;;0.30;78.70;;;;;;4956267;29;20058;-82
2021/01/12 03:39:16;;;;;;;14.43;6.30;;;0.40;78.50;;;;;;4938757;29;20050;-81
2021/01/12 03:41:42;;;;;;;17.83;7.40;;;0.40;78.50;;;;;;4922492;29;20066;-81
2021/01/12 03:44:08;;;;;;;16.30;6.90;;;0.30;78.10;;;;;;4921286;28;20039;-81
2021/01/12 03:46:34;;;;;;;22.00;8.60;;;0.30;78.30;;;;;;4938958;29;20035;-81
2021/01/12 03:48:59;;;;;;;17.55;7.47;;;0.30;78.90;;;;;;4923020;29;20020;-82
2021/01/12 03:51:27;;;;;;;19.67;7.65;;;0.40;78.50;;;;;;4956243;29;20031;-81
2021/01/12 03:53:53;;;;;;;17.10;7.65;;;0.40;78.40;;;;;;4937549;29;20027;-81
2021/01/12 03:56:19;;;;;;;14.18;6.13;;;0.30;78.30;;;;;;4938594;29;20035;-81
2021/01/12 03:58:45;;;;;;;20.13;6.38;;;0.40;78.40;;;;;;4922725;29;20019;-81
2021/01/12 04:01:13;;;;;;;18.83;7.85;;;0.40;79.10;;;;;;4927510;29;20043;-81
2021/01/12 04:03:42;;;;;;;21.67;9.25;;;0.40;78.50;;;;;;4938270;29;20027;-81
2021/01/12 04:06:14;;;;;;;14.95;5.50;;;0.40;78.40;;;;;;4938157;29;20023;-81
2021/01/12 04:08:46;;;;;;;19.02;8.35;;;0.30;77.90;;;;;;4938286;29;20472;-81
2021/01/12 04:11:13;;;;;;;22.17;8.95;;;0.30;78.20;;;;;;4938262;29;20046;-81
2021/01/12 04:13:40;;;;;;;11.90;5.47;;;0.30;78.40;;;;;;4937932;29;20027;-81
2021/01/12 04:16:06;;;;;;;18.80;8.38;;;0.30;78.10;;;;;;4955515;29;20102;-81
2021/01/12 04:18:32;;;;;;;16.75;7.70;;;0.30;78.10;;;;;;4955954;29;20023;-81
2021/01/12 04:20:59;;;;;;;18.40;6.07;;;0.30;78.30;;;;;;4945817;29;20023;-82
2021/01/12 04:23:25;;;;;;;15.73;6.63;;;0.30;78.20;;;;;;4922390;29;20106;-81
2021/01/12 04:25:50;;;;;;;17.27;7.35;;;0.30;78.30;;;;;;4937840;29;20673;-82
2021/01/12 04:28:17;;;;;;;19.58;8.57;;;0.30;78.40;;;;;;4944894;29;20086;-81
2021/01/12 04:30:42;;;;;;;13.90;5.95;;;0.30;78.40;;;;;;4937868;29;20035;-82
2021/01/12 04:33:09;;;;;;;20.20;8.52;;;0.30;78.40;;;;;;4949529;28;20019;-82
2021/01/12 04:35:35;;;;;;;9.45;3.63;;;0.40;78.70;;;;;;4937930;29;20062;-81
2021/01/12 04:38:01;;;;;;;17.77;7.68;;;0.40;78.40;;;;;;4922092;29;20059;-81
2021/01/12 04:40:27;;;;;;;17.88;7.53;;;0.30;78.50;;;;;;4921695;29;20118;-82
2021/01/12 04:42:56;;;;;;;19.02;8.00;;;0.50;78.70;;;;;;4937958;29;20131;-81
2021/01/12 04:45:22;;;;;;;7.25;4.05;;;0.40;78.40;;;;;;4937303;29;20047;-81
2021/01/12 04:47:47;;;;;;;17.42;6.85;;;0.50;78.40;;;;;;4937613;29;20451;-81
2021/01/12 04:50:13;;;;;;;19.63;7.82;;;0.50;78.50;;;;;;4937470;29;20038;-81
2021/01/12 04:53:05;;;;;;;22.55;10.23;;;0.50;78.80;;;;;;4937544;29;20089;-81
2021/01/12 04:55:31;;;;;;;19.92;9.32;;;0.60;78.80;;;;;;4950125;29;20390;-81
2021/01/12 04:57:57;;;;;;;17.05;7.90;;;0.50;78.60;;;;;;4949077;28;20035;-82
2021/01/12 05:00:27;;;;;;;17.10;7.15;;;0.60;78.70;;;;;;4954863;29;20050;-82
2021/01/12 05:03:03;;;;;;;14.52;6.13;;;0.70;78.60;;;;;;4937010;29;20791;-80
2021/01/12 05:05:31;;;;;;;19.52;8.30;;;0.70;78.50;;;;;;4937419;29;20034;-82
2021/01/12 05:08:01;;;;;;;19.38;8.10;;;0.70;78.30;;;;;;4937562;29;20031;-82
2021/01/12 05:10:30;;;;;;;20.45;8.88;;;0.70;78.50;;;;;;4937299;29;20031;-82
2021/01/12 05:12:57;;;;;;;21.48;7.85;;;0.70;78.50;;;;;;4950404;29;20031;-82
2021/01/12 05:15:25;;;;;;;18.25;6.72;;;0.70;78.50;;;;;;4954221;29;20356;-82
2021/01/12 05:17:54;;;;;;;16.17;7.40;;;0.70;78.40;;;;;;4954628;29;20035;-81
2021/01/12 05:20:25;;;;;;;15.70;7.03;;;0.60;78.30;;;;;;4937288;29;20026;-82
2021/01/12 05:23:06;;;;;;;16.83;8.27;;;0.70;78.50;;;;;;4921567;29;20051;-82
2021/01/12 05:25:34;;;;;;;12.05;5.22;;;0.70;78.30;;;;;;4951809;28;20669;-81
2021/01/12 05:28:04;;;;;;;20.50;8.75;;;0.70;78.60;;;;;;4939497;29;20399;-82
2021/01/12 05:30:30;;;;;;;16.08;7.20;;;0.70;78.50;;;;;;4921576;29;20035;-82
2021/01/12 05:32:58;;;;;;;18.33;7.25;;;0.70;78.50;;;;;;4939056;29;20028;-81
2021/01/12 05:35:36;;;;;;;18.15;8.50;;;0.70;78.40;;;;;;4920546;29;20028;-81
2021/01/12 05:38:05;;;;;;;11.75;5.50;;;0.70;78.50;;;;;;4921583;29;20031;-82
2021/01/12 05:40:40;;;;;;;27.13;13.05;;;0.80;78.80;;;;;;4936611;29;20039;-81
2021/01/12 05:43:12;;;;;;;16.60;7.65;;;0.80;78.80;;;;;;4935088;29;20038;-81
2021/01/12 05:45:42;;;;;;;7.18;3.83;;;0.80;78.70;;;;;;4943633;29;20111;-81
2021/01/12 05:48:11;;;;;;;17.52;8.30;;;0.80;78.60;;;;;;4932204;29;20472;-81
2021/01/12 05:50:39;;;;;;;16.17;7.30;;;0.80;78.30;;;;;;4929676;29;20134;-81
2021/01/12 05:53:15;;;;;;;16.98;7.18;;;0.90;78.80;;;;;;4931675;29;20028;-81
2021/01/12 05:55:44;;;;;;;23.08;9.75;;;0.90;78.80;;;;;;4930412;29;20031;-81
2021/01/12 05:58:19;;;;;;;16.63;7.20;;;0.90;78.90;;;;;;4930976;29;20039;-81
2021/01/12 06:00:46;;;;;;;;;;;1.00;78.70;;;;;;4924117;29;20050;-81
2021/01/12 06:03:16;;;;;;;19.30;7.82;;;1.00;78.60;;;;;;4953984;29;19914;-82
2021/01/12 06:05:46;;;;;;;17.70;8.05;;;1.00;78.70;;;;;;4922979;29;20023;-81
2021/01/12 06:08:16;;;;;;;11.38;5.18;;;1.00;78.80;;;;;;4944238;29;20031;-81
2021/01/12 06:10:45;;;;;;;14.63;6.65;;;1.10;78.80;;;;;;4927127;29;20040;-81
2021/01/12 06:13:18;;;;;;;16.02;7.53;;;1.10;78.90;;;;;;4905005;29;20036;-81
2021/01/12 06:15:46;;;;;;;9.85;4.38;;;1.10;78.90;;;;;;4924770;29;20020;-84
2021/01/12 06:18:17;;;;;;;18.42;7.72;;;1.10;79.00;;;;;;4926949;29;20484;-86
2021/01/12 06:20:56;;;;;;;20.48;10.02;;;1.20;79.30;;;;;;4928329;29;20388;-87
2021/01/12 06:24:00;;;;;;;13.68;5.68;;;1.30;79.00;;;;;;4922575;29;20054;-91
2021/01/12 06:26:53;;;;;;;16.75;7.97;;;1.30;78.90;;;;;;4884234;29;20024;-91
2021/01/12 06:29:20;;;;;;;15.80;7.72;;;1.30;78.70;;;;;;4918994;29;20088;-91
2021/01/12 06:32:03;;;;;;;13.38;6.50;;;1.10;78.80;;;;;;4925262;29;20039;-90
2021/01/12 06:34:31;;;;;;;17.88;8.48;;;1.30;78.90;;;;;;4938814;29;20023;-88
2021/01/12 06:37:03;;;;;;;12.18;6.18;;;1.30;78.80;;;;;;4918873;29;20038;-88
2021/01/12 06:39:58;;;;;;;14.57;6.00;;;1.30;79.00;;;;;;4932491;29;20031;-93
2021/01/12 06:42:29;;;;;;;10.05;4.65;;;1.40;79.00;;;;;;4916289;29;20383;-87
2021/01/12 06:44:58;;;;;;;16.98;7.93;;;1.40;79.00;;;;;;4927104;29;20039;-87
2021/01/12 06:47:27;;;;;;;14.50;7.15;;;1.40;78.80;;;;;;4929622;29;20028;-87
2021/01/12 06:50:12;;;;;;;21.27;8.75;;;1.40;78.90;;;;;;4934334;29;20043;-86
2021/01/12 06:52:48;;;;;;;20.50;9.93;;;1.40;78.70;;;;;;4934184;29;20031;-86
2021/01/12 06:55:20;;;;;;;15.15;6.65;;;1.40;78.70;;;;;;4914366;29;20387;-88
2021/01/12 06:57:50;;;;;;;10.23;4.88;;;1.30;78.20;;;;;;4936816;29;20365;-92
2021/01/12 07:00:18;;;;;;;12.10;5.75;;;1.40;78.40;;;;;;4910238;29;20083;-94
2021/01/12 07:02:54;;;;;;;11.57;5.30;;;1.20;78.40;;;;;;4934424;29;20110;-94
2021/01/12 07:05:20;;;;;;;15.38;6.13;;;1.10;78.50;;;;;;4929343;29;20117;-88
2021/01/12 07:07:53;;;;;;;18.98;9.20;;;1.10;78.50;;;;;;4913995;29;20082;-94
2021/01/12 07:10:24;;;;;;;17.95;8.95;;;1.00;78.80;;;;;;4935826;29;20026;-94
2021/01/12 07:12:52;;;;;;;24.77;10.38;;;1.10;78.70;;;;;;4910810;29;20020;-94
2021/01/12 07:15:21;;;;;;;12.23;5.05;;;1.10;78.60;;;;;;4930952;29;20031;-94
2021/01/12 07:17:54;;;;;;;22.80;9.80;;;1.20;78.40;;;;;;4936441;29;20022;-94
2021/01/12 07:20:28;;;;;;;18.92;10.52;;;1.00;78.10;;;;;;4930094;29;20035;-94
2021/01/12 07:23:08;;;;;;;20.87;10.23;;;1.00;78.50;;;;;;4932590;29;20084;-94
2021/01/12 07:25:42;;;;;;;26.73;11.63;;;1.00;78.30;;;;;;4925320;29;20031;-91
2021/01/12 07:28:28;;;;;;;20.50;10.63;;;1.00;78.40;;;;;;4931271;29;20114;-92
2021/01/12 07:30:59;;;;;;;23.92;10.68;;;0.90;78.60;;;;;;4920331;29;20105;-93
2021/01/12 07:33:32;;;;;;;21.95;8.68;;;0.90;78.40;;;;;;4928920;29;20023;-93
2021/01/12 07:36:01;;;;;;;26.58;10.90;;;0.90;78.30;;;;;;4923357;29;20020;-89
2021/01/12 07:38:43;;;;;;;21.67;10.35;;;0.80;78.30;;;;;;4918761;29;20031;-92
2021/01/12 07:41:16;;;;;;;22.98;11.00;;;0.80;78.70;;;;;;4920870;29;20106;-92
2021/01/12 07:43:42;;;;;;;20.67;9.20;;;0.80;78.80;;;;;;4929754;29;20095;-92
2021/01/12 07:46:23;;;;;;;16.85;6.45;;;0.80;78.50;;;;;;4914586;29;20052;-90
2021/01/12 07:48:56;;;;;;;14.13;5.40;;;0.80;78.70;;;;;;4930494;29;20023;-93
2021/01/12 07:51:45;;;;;;;17.50;8.85;;;0.90;78.70;;;;;;4930892;29;20039;-92
2021/01/12 07:54:48;;;;;;;12.30;5.45;;;0.80;78.70;;;;;;4923300;29;20106;-93
2021/01/12 07:57:29;;;;;;;13.23;5.97;;;0.90;79.00;;;;;;4875647;29;20410;-93
2021/01/12 08:00:21;;;;;;;25.45;12.00;;;0.90;78.60;;;;;;4921638;29;20035;-93
2021/01/12 08:02:55;;;;;;;18.27;8.77;;;0.80;78.90;;;;;;4919731;29;20038;-94
2021/01/12 08:05:26;;;;;;;25.58;9.80;;;0.80;78.90;;;;;;4934250;29;20035;-91
2021/01/12 08:08:24;;;;;;;17.60;7.43;;;0.80;78.90;;;;;;4903184;29;20031;-94
2021/01/12 08:11:00;;;;;;;19.73;9.15;;;0.80;78.90;;;;;;4921032;29;20508;-94
2021/01/12 08:14:02;;;;;;;15.90;6.18;;;0.90;79.10;;;;;;4935231;29;20039;-93
2021/01/12 08:16:28;;;;;;;16.85;8.38;;;0.90;79.20;;;;;;4919414;29;20019;-90
2021/01/12 08:18:56;;;;;;;21.55;8.38;;;1.00;79.40;;;;;;4909050;28;20028;-89
2021/01/12 08:21:22;;;;;;;18.80;8.48;;;1.00;79.40;;;;;;4925121;29;20090;-88
2021/01/12 08:23:48;;;;;;;21.17;9.90;;;1.20;79.50;;;;;;4922502;29;20024;-89
2021/01/12 08:26:14;;;;;;;16.58;6.97;;;1.10;79.50;;;;;;4891332;29;20054;-90
2021/01/12 08:28:47;;;;;;;22.35;9.68;;;1.20;79.40;;;;;;4927932;29;20027;-90
2021/01/12 08:31:17;;;;;;;19.23;10.07;;;1.10;79.20;;;;;;4890254;29;20114;-88
2021/01/12 08:33:45;;;;;;;10.88;5.05;;;1.20;79.20;;;;;;4926337;29;20019;-89
2021/01/12 08:36:25;;;;;;;11.98;5.47;;;1.20;79.30;;;;;;4920430;29;20420;-89
2021/01/12 08:38:53;;;;;;;15.18;6.55;;;1.20;79.40;;;;;;4920191;29;20509;-90
2021/01/12 08:41:20;;;;;;;12.20;4.70;;;1.30;79.50;;;;;;4921773;29;20076;-88
2021/01/12 08:43:56;;;;;;;11.95;6.45;;;1.30;79.40;;;;;;4906210;29;20476;-89
2021/01/12 08:46:28;;;;;;;14.60;7.28;;;1.30;79.20;;;;;;4939133;29;20074;-90
2021/01/12 08:48:54;;;;;;;20.55;8.80;;;1.30;79.40;;;;;;4938628;29;20056;-90
2021/01/12 08:51:24;;;;;;;17.27;6.78;;;1.20;79.40;;;;;;4942958;29;20055;-92
2021/01/12 08:53:55;;;;;;;17.88;7.50;;;1.40;79.60;;;;;;4941284;29;20023;-91
2021/01/12 08:56:22;;;;;;;5.47;3.00;;;1.40;79.50;;;;;;4927582;29;20039;-87
2021/01/12 08:59:07;;;;;;;11.07;4.32;;;1.40;79.50;;;;;;4940525;29;20024;-90
2021/01/12 09:01:38;;;;;;;10.70;4.97;;;1.40;79.50;;;;;;4939693;29;20042;-88
2021/01/12 09:04:09;;;;;;;17.25;7.70;;;1.40;79.40;;;;;;4940054;29;20042;-87
2021/01/12 09:06:36;;;;;;;16.85;8.02;;;1.40;79.40;;;;;;4938589;29;20019;-88
2021/01/12 09:09:21;;;;;;;22.67;10.07;;;1.40;79.40;;;;;;4939714;29;20032;-89
2021/01/12 09:11:49;;;;;;;;;;;1.50;79.70;;;;;;4921599;29;20108;-90
2021/01/12 09:14:20;;;;;;;12.48;5.13;;;1.50;79.40;;;;;;4939125;29;19911;-86
2021/01/12 09:16:53;;;;;;;19.13;7.97;;;1.50;79.70;;;;;;4922771;29;20020;-89
2021/01/12 09:19:19;;;;;;;14.35;6.38;;;1.50;79.50;;;;;;4927383;29;20032;-89
2021/01/12 09:21:45;;;;;;;19.30;7.93;;;1.60;79.80;;;;;;4939026;29;20031;-89
2021/01/12 09:24:19;;;;;;;22.30;10.57;;;1.60;79.60;;;;;;4922179;29;20058;-87
2021/01/12 09:26:47;;;;;;;16.70;8.07;;;1.60;79.70;;;;;;4938729;29;20431;-89
2021/01/12 09:29:15;;;;;;;24.00;10.07;;;1.60;79.50;;;;;;4938721;29;20534;-88
2021/01/12 09:31:48;;;;;;;18.45;9.02;;;1.70;79.80;;;;;;4937960;29;20035;-89
2021/01/12 09:34:22;;;;;;;14.15;7.57;;;1.60;79.80;;;;;;4940830;29;20031;-89
2021/01/12 09:36:48;;;;;;;13.00;5.32;;;1.70;79.90;;;;;;4922206;29;20133;-90
2021/01/12 09:39:14;;;;;;;19.42;9.73;;;1.70;79.80;;;;;;4922029;29;20050;-87
2021/01/12 09:41:41;;;;;;;10.05;5.45;;;1.70;79.80;;;;;;4922956;29;20493;-90
2021/01/12 09:44:08;;;;;;;15.73;6.97;;;1.80;79.70;;;;;;4937229;29;20034;-89
2021/01/12 09:46:37;;;;;;;10.60;5.28;;;1.70;79.70;;;;;;4938331;29;20121;-90
2021/01/12 09:49:03;;;;;;;36.67;15.10;;;1.70;79.90;;;;;;4938149;29;20078;-89
2021/01/12 09:51:34;;;;;;;20.98;10.40;;;1.90;80.30;;;;;;4938013;29;20035;-89
2021/01/12 09:54:02;;;;;;;18.10;8.27;;;1.90;80.30;;;;;;4939042;29;20019;-89
2021/01/12 09:56:28;;;;;;;16.98;7.70;;;1.90;80.10;;;;;;4941366;29;20023;-86
2021/01/12 09:58:53;;;;;;;15.70;7.88;;;2.00;80.00;;;;;;4937862;29;20024;-88
2021/01/12 10:01:20;;;;;;;18.63;8.95;;;2.00;80.10;;;;;;4920392;29;20038;-89
2021/01/12 10:03:47;;;;;;;16.00;7.28;;;2.10;80.30;;;;;;4937454;29;20019;-89
2021/01/12 10:06:21;;;;;;;17.17;7.72;;;2.10;80.20;;;;;;4905867;29;20035;-87
2021/01/12 10:08:47;;;;;;;8.02;3.85;;;2.20;80.30;;;;;;4921361;29;20028;-86
2021/01/12 10:11:14;;;;;;;8.90;4.30;;;2.20;80.20;;;;;;4937383;29;20107;-87
2021/01/12 10:13:45;;;;;;;12.82;5.40;;;2.20;80.10;;;;;;4937135;29;20030;-87
2021/01/12 10:16:19;;;;;;;13.20;6.00;;;2.30;80.30;;;;;;4937168;29;20067;-87
2021/01/12 10:18:45;;;;;;;14.80;6.67;;;2.20;80.10;;;;;;4922788;29;20118;-87
2021/01/12 10:21:11;;;;;;;17.50;7.20;;;2.40;80.40;;;;;;4910539;29;20464;-87
2021/01/12 10:23:46;;;;;;;16.58;6.25;;;2.40;80.40;;;;;;4923472;29;20027;-86
2021/01/12 10:26:19;;;;;;;15.15;7.25;;;2.40;80.50;;;;;;4924317;29;20066;-87
2021/01/12 10:28:47;;;;;;;18.77;8.15;;;2.50;80.20;;;;;;4938288;29;20479;-88
2021/01/12 10:31:20;;;;;;;8.77;3.88;;;2.50;80.30;;;;;;4938704;29;20058;-89
2021/01/12 10:33:51;;;;;;;13.00;6.00;;;2.50;80.10;;;;;;4937550;29;20019;-89
2021/01/12 10:37:40;;;;;;;9.05;3.95;;;2.50;80.30;;;;;;4921708;29;20057;-88
2021/01/12 10:40:25;;;;;;;;;;;;;;;;;;;;;
2021/01/12 10:43:02;;;;;;;12.15;5.13;;;2.60;80.30;;;;;;4939166;29;20041;-89
2021/01/12 10:45:43;;;;;;;;;;;;;;;;;;;;;
2021/01/12 10:48:10;;;;;;;17.23;8.70;;;2.60;80.60;;;;;;4940029;29;20037;-90
2021/01/12 10:50:36;;;;;;;8.00;3.72;;;2.60;80.90;;;;;;4940344;29;20031;-88
2021/01/12 10:53:53;;;;;;;11.32;5.35;;;2.70;80.90;;;;;;4940279;29;20096;-89
2021/01/12 10:56:49;;;;;;;13.95;5.40;;;2.70;80.70;;;;;;4943357;29;20035;-90
2021/01/12 10:59:20;;;;;;;8.70;4.28;;;2.80;80.70;;;;;;4930955;29;20059;-86
2021/01/12 11:01:54;;;;;;;11.93;5.18;;;2.80;80.70;;;;;;4939590;29;20019;-86
2021/01/12 11:04:20;;;;;;;14.98;4.43;;;2.90;80.50;;;;;;4939825;29;20028;-85
2021/01/12 11:06:51;;;;;;;15.85;7.30;;;2.90;81.40;;;;;;4940102;29;20019;-87
2021/01/12 11:09:20;;;;;;;8.85;4.38;;;3.00;81.00;;;;;;4924937;29;20059;-89
2021/01/12 11:11:50;;;;;;;13.73;4.70;;;3.00;80.60;;;;;;4940210;29;20039;-86
2021/01/12 11:14:20;;;;;;;8.52;4.18;;;2.90;80.30;;;;;;4939981;29;20024;-84
2021/01/12 11:16:46;;;;;;;11.50;4.00;;;3.00;80.50;;;;;;4941534;29;20070;-84
2021/01/12 11:19:28;;;;;;;13.88;5.95;;;2.90;80.30;;;;;;4940057;29;20024;-84
2021/01/12 11:22:47;;;;;;;;;;;;;;;;;;;;;
2021/01/12 11:25:16;;;;;;;12.25;5.78;;;2.90;80.70;;;;;;4915071;29;20033;-81
2021/01/12 11:27:42;;;;;;;11.43;4.80;;;3.00;80.80;;;;;;4939725;29;20023;-79
2021/01/12 11:30:18;;;;;;;12.82;5.22;;;3.10;80.90;;;;;;4938989;29;20023;-84
2021/01/12 11:32:45;;;;;;;15.15;6.65;;;3.00;80.80;;;;;;4924226;29;20042;-86
2021/01/12 11:35:15;;;;;;;13.55;5.57;;;3.00;80.80;;;;;;4924017;29;20050;-85
2021/01/12 11:37:49;;;;;;;7.32;3.05;;;3.10;80.70;;;;;;4939611;29;20023;-86
2021/01/12 11:40:15;;;;;;;10.57;3.83;;;3.10;80.90;;;;;;4938383;29;20501;-82
2021/01/12 11:42:46;;;;;;;12.50;5.80;;;3.10;80.70;;;;;;4938882;29;20020;-83
2021/01/12 11:45:12;;;;;;;12.00;5.30;;;3.10;80.70;;;;;;4938802;29;20051;-84
2021/01/12 11:47:44;;;;;;;12.40;5.03;;;3.10;80.70;;;;;;4938952;29;20024;-84
2021/01/12 11:50:20;;;;;;;8.15;3.63;;;3.10;80.80;;;;;;4938578;29;20046;-84
2021/01/12 11:52:45;;;;;;;10.93;5.00;;;3.20;81.00;;;;;;4920849;29;20036;-84
2021/01/12 11:55:12;;;;;;;11.10;4.78;;;3.20;81.00;;;;;;4938041;29;20039;-85
2021/01/12 11:57:41;;;;;;;5.57;2.28;;;3.20;81.00;;;;;;4922658;29;20038;-84
2021/01/12 12:00:07;;;;;;;9.50;4.13;;;3.20;81.10;;;;;;4922195;29;20181;-84
2021/01/12 12:02:33;;;;;;;7.65;3.00;;;3.20;81.00;;;;;;4938345;29;20110;-84
2021/01/12 12:05:00;;;;;;;9.23;4.22;;;3.30;81.10;;;;;;4930701;29;20170;-84
2021/01/12 12:07:29;;;;;;;4.55;2.28;;;3.30;81.20;;;;;;4922695;29;20484;-85
2021/01/12 12:10:00;;;;;;;4.25;2.28;;;3.30;81.00;;;;;;4938493;29;20019;-84
2021/01/12 12:12:26;;;;;;;3.30;1.48;;;3.40;81.20;;;;;;4953122;29;20023;-84
2021/01/12 12:14:52;;;;;;;6.93;2.63;;;3.40;81.20;;;;;;4937740;29;20110;-84
2021/01/12 12:17:18;;;;;;;3.78;1.65;;;3.40;81.30;;;;;;4922519;29;20039;-86
2021/01/12 12:19:46;;;;;;;4.93;2.33;;;3.40;81.20;;;;;;4938320;29;20126;-86
2021/01/12 12:22:15;;;;;;;2.80;1.48;;;3.50;81.30;;;;;;4933477;29;20031;-86
2021/01/12 12:24:46;;;;;;;9.30;3.25;;;3.50;81.10;;;;;;4938926;29;20091;-86
2021/01/12 12:27:19;;;;;;;4.60;1.83;;;3.50;80.90;;;;;;4923622;29;20031;-87
2021/01/12 12:29:47;;;;;;;5.30;2.15;;;3.40;81.10;;;;;;4939254;29;20027;-87
2021/01/12 12:32:13;;;;;;;6.03;2.20;;;3.50;81.20;;;;;;4935784;29;20043;-87
2021/01/12 12:34:41;;;;;;;3.17;1.88;;;3.50;82.00;;;;;;4927082;29;20051;-88
2021/01/12 12:37:09;;;;;;;5.10;2.00;;;3.40;81.10;;;;;;4937941;29;20082;-88
2021/01/12 12:39:37;;;;;;;6.72;2.70;;;3.40;81.10;;;;;;4935657;29;20495;-87
2021/01/12 12:42:07;;;;;;;4.70;1.85;;;3.50;81.20;;;;;;4939572;29;20031;-87
2021/01/12 12:44:33;;;;;;;13.32;5.88;;;3.40;81.20;;;;;;4940359;28;20090;-87
2021/01/12 12:47:01;;;;;;;7.93;3.28;;;3.40;81.10;;;;;;4939412;29;20035;-86
2021/01/12 12:49:30;;;;;;;6.72;2.40;;;3.40;81.30;;;;;;4940147;29;20026;-87
2021/01/12 12:52:09;;;;;;;5.65;2.63;;;3.40;81.20;;;;;;4923645;29;20043;-87
2021/01/12 12:55:39;;;;;;;7.20;2.88;;;3.30;82.00;;;;;;4937516;29;20353;-86
2021/01/12 12:59:20;;;;;;;7.10;2.83;;;3.50;81.80;;;;;;4943709;29;20027;-89
2021/01/12 13:01:56;;;;;;;6.50;2.35;;;3.50;81.60;;;;;;4884074;29;20028;-90
2021/01/12 13:04:51;;;;;;;5.57;2.28;;;3.50;81.50;;;;;;4883849;29;20028;-89
2021/01/12 13:07:58;;;;;;;10.30;3.63;;;3.50;81.40;;;;;;4894561;29;20084;-88
2021/01/12 13:10:34;;;;;;;4.90;2.17;;;3.40;81.10;;;;;;4949895;29;20049;-88